Time;durP1;ratioP1;P1;durP2;ratioP2;P2;SDS_P1;SDS_P2;PMS_P1;PMS_P2;Temp;Humidity;BMP_temperature;BMP_pressure;BME280_temperature;BME280_humidity;BME280_pressure;Samples;Min_cycle;Max_cycle;Signal;HPM_P1;HPM_P2
2024/01/27 00:01:47;;;;;;;15.63;5.60;;;3.50;99.90;;;;;;5054082;28;20706;-72
2024/01/27 00:04:13;;;;;;;13.33;5.87;;;3.60;99.90;;;;;;5058868;28;20174;-73
2024/01/27 00:06:39;;;;;;;9.87;5.53;;;3.50;99.90;;;;;;5073569;28;20197;-72
2024/01/27 00:09:06;;;;;;;15.07;5.00;;;3.40;99.90;;;;;;5073668;28;20185;-72
2024/01/27 00:11:31;;;;;;;7.33;5.73;;;3.50;99.90;;;;;;5071794;28;20188;-72
2024/01/27 00:13:59;;;;;;;18.80;5.50;;;3.50;99.90;;;;;;5073626;28;20178;-72
2024/01/27 00:16:24;;;;;;;9.90;5.50;;;3.50;99.90;;;;;;5055690;28;20238;-72
2024/01/27 00:18:50;;;;;;;18.40;6.17;;;3.40;99.90;;;;;;5071908;28;20470;-73
2024/01/27 00:21:16;;;;;;;14.03;6.30;;;3.50;1.00;;;;;;5073505;28;20170;-73
2024/01/27 00:23:41;;;;;;;12.60;6.50;;;3.30;99.90;;;;;;5058531;28;20194;-72
2024/01/27 00:26:07;;;;;;;13.33;5.80;;;3.30;99.90;;;;;;5053318;28;20198;-73
2024/01/27 00:28:33;;;;;;;22.10;7.50;;;3.20;99.90;;;;;;5053432;28;20635;-73
2024/01/27 00:30:59;;;;;;;15.63;6.83;;;3.20;1.00;;;;;;5053409;28;20280;-73
2024/01/27 00:33:24;;;;;;;8.63;6.10;;;3.10;1.00;;;;;;5070867;28;20615;-73
2024/01/27 00:35:50;;;;;;;13.50;5.77;;;3.00;1.00;;;;;;5073879;28;20665;-72
2024/01/27 00:38:15;;;;;;;12.10;6.00;;;2.90;28.30;;;;;;5072949;28;20619;-73
2024/01/27 00:40:41;;;;;;;8.93;5.93;;;2.80;99.90;;;;;;5073152;28;20173;-73
2024/01/27 00:43:07;;;;;;;10.17;6.23;;;2.80;1.00;;;;;;5072439;28;20223;-72
2024/01/27 00:45:32;;;;;;;14.07;6.23;;;2.70;1.00;;;;;;5068146;28;20174;-72
2024/01/27 00:47:58;;;;;;;12.40;6.23;;;2.80;1.00;;;;;;5053417;28;20201;-74
2024/01/27 00:50:25;;;;;;;14.57;6.73;;;2.70;99.90;;;;;;5052795;28;20539;-73
2024/01/27 00:52:51;;;;;;;14.00;6.17;;;2.70;1.00;;;;;;5052869;28;20538;-73
2024/01/27 00:55:19;;;;;;;10.57;6.43;;;2.60;1.00;;;;;;5052764;28;20179;-73
2024/01/27 00:57:45;;;;;;;11.30;6.57;;;2.60;99.90;;;;;;5057955;28;20595;-72
2024/01/27 01:00:11;;;;;;;12.13;6.47;;;2.60;1.00;;;;;;5072455;28;20185;-73
2024/01/27 01:02:37;;;;;;;13.00;6.53;;;2.50;1.00;;;;;;5072716;28;20544;-72
2024/01/27 01:05:04;;;;;;;10.57;6.43;;;2.50;96.80;;;;;;5072601;28;20461;-72
2024/01/27 01:07:32;;;;;;;14.30;6.23;;;2.50;1.00;;;;;;5072824;28;20209;-73
2024/01/27 01:09:58;;;;;;;17.17;6.60;;;2.50;1.00;;;;;;5072578;28;20174;-72
2024/01/27 01:12:25;;;;;;;11.47;6.93;;;2.40;1.00;;;;;;5068861;28;20186;-72
2024/01/27 01:14:51;;;;;;;15.73;6.70;;;2.50;7.10;;;;;;5055045;28;20163;-73
2024/01/27 01:17:17;;;;;;;10.77;5.93;;;2.50;55.60;;;;;;5055400;28;20194;-73
2024/01/27 01:19:42;;;;;;;14.97;6.93;;;2.40;1.00;;;;;;5052444;28;20206;-72
2024/01/27 01:22:08;;;;;;;18.70;6.80;;;2.40;1.00;;;;;;5052214;28;20627;-72
2024/01/27 01:24:33;;;;;;;15.23;6.97;;;2.30;99.90;;;;;;5052495;28;20229;-73
2024/01/27 01:26:59;;;;;;;11.33;6.10;;;2.30;94.60;;;;;;5055222;28;20273;-72
2024/01/27 01:29:25;;;;;;;12.77;6.60;;;2.30;79.50;;;;;;5072377;28;20181;-72
2024/01/27 01:31:51;;;;;;;19.47;6.53;;;2.20;99.90;;;;;;5072340;28;20646;-72
2024/01/27 01:34:17;;;;;;;10.37;6.27;;;2.10;99.90;;;;;;5072258;28;20255;-72
2024/01/27 01:36:42;;;;;;;18.23;6.63;;;2.20;99.90;;;;;;5066876;28;20194;-72
2024/01/27 01:39:10;;;;;;;13.00;6.07;;;2.20;99.90;;;;;;5034146;28;20611;-72
2024/01/27 01:41:36;;;;;;;16.00;6.83;;;2.10;1.00;;;;;;5065438;28;20181;-72
2024/01/27 01:44:01;;;;;;;13.63;6.33;;;2.20;1.00;;;;;;5071983;28;20177;-72
2024/01/27 01:46:27;;;;;;;17.50;7.27;;;2.20;1.00;;;;;;5071988;28;20190;-72
2024/01/27 01:48:53;;;;;;;16.70;6.17;;;2.20;1.00;;;;;;5071853;28;20166;-72
2024/01/27 01:51:19;;;;;;;12.37;7.20;;;2.10;1.00;;;;;;5071688;28;20239;-72
2024/01/27 01:53:49;;;;;;;17.57;8.20;;;2.10;1.00;;;;;;5071775;28;20170;-73
2024/01/27 01:56:15;;;;;;;14.17;7.53;;;2.20;1.00;;;;;;5058944;28;20233;-73
2024/01/27 01:58:41;;;;;;;11.10;6.27;;;2.20;1.00;;;;;;5051900;28;20236;-73
2024/01/27 02:01:06;;;;;;;16.40;6.83;;;2.10;1.00;;;;;;5051627;28;20202;-72
2024/01/27 02:03:32;;;;;;;17.60;7.37;;;2.20;1.00;;;;;;5051798;28;20217;-72
2024/01/27 02:05:58;;;;;;;12.63;6.80;;;2.30;1.00;;;;;;5033504;28;20586;-72
2024/01/27 02:08:24;;;;;;;15.57;6.67;;;2.20;1.00;;;;;;5055037;28;20190;-72
2024/01/27 02:10:49;;;;;;;11.47;6.63;;;2.20;1.00;;;;;;5071693;28;20182;-73
2024/01/27 02:13:20;;;;;;;25.00;7.50;;;2.20;1.00;;;;;;5071698;28;20170;-72
2024/01/27 02:15:46;;;;;;;16.63;6.57;;;2.10;1.00;;;;;;5070050;28;20182;-72
2024/01/27 02:18:12;;;;;;;11.47;6.80;;;2.20;1.00;;;;;;5071755;28;20201;-72
2024/01/27 02:20:38;;;;;;;10.37;6.90;;;2.10;1.00;;;;;;5058669;28;20175;-73
2024/01/27 02:23:04;;;;;;;15.77;7.23;;;2.00;1.00;;;;;;5051453;28;20642;-72
2024/01/27 02:25:33;;;;;;;12.93;6.43;;;2.10;1.00;;;;;;5051479;28;20200;-73
2024/01/27 02:27:59;;;;;;;16.27;6.47;;;2.00;1.00;;;;;;5051265;28;20261;-72
2024/01/27 02:30:25;;;;;;;11.63;6.73;;;2.00;1.00;;;;;;5051174;28;20550;-72
2024/01/27 02:32:51;;;;;;;20.47;8.10;;;2.10;1.00;;;;;;5051440;28;20240;-72
2024/01/27 02:35:17;;;;;;;21.00;6.83;;;2.10;1.00;;;;;;5063010;28;20266;-72
2024/01/27 02:37:42;;;;;;;15.30;7.13;;;2.10;1.00;;;;;;5072452;28;20221;-72
2024/01/27 02:40:09;;;;;;;12.20;6.27;;;2.10;1.00;;;;;;5071843;28;20201;-72
2024/01/27 02:42:35;;;;;;;18.37;7.63;;;1.90;1.00;;;;;;5053029;28;20177;-72
2024/01/27 02:45:01;;;;;;;18.07;7.57;;;2.00;1.00;;;;;;5071147;28;20174;-71
2024/01/27 02:47:27;;;;;;;22.17;6.83;;;2.10;1.00;;;;;;5070777;28;20259;-71
2024/01/27 02:49:52;;;;;;;17.57;7.40;;;1.90;1.00;;;;;;5061541;28;20273;-71
2024/01/27 02:52:18;;;;;;;16.53;7.13;;;1.90;1.00;;;;;;5051043;28;20174;-72
2024/01/27 02:54:44;;;;;;;11.70;6.00;;;2.00;1.00;;;;;;5051034;28;20699;-72
2024/01/27 02:57:10;;;;;;;14.97;7.03;;;2.20;1.00;;;;;;5050660;28;20198;-72
2024/01/27 02:59:35;;;;;;;16.10;6.87;;;2.00;1.00;;;;;;5051008;28;20285;-73
2024/01/27 03:02:01;;;;;;;21.27;8.90;;;2.00;1.00;;;;;;5051507;28;20304;-73
2024/01/27 03:04:27;;;;;;;16.57;6.97;;;2.00;1.00;;;;;;5070924;28;20196;-72
2024/01/27 03:06:52;;;;;;;17.17;7.40;;;2.10;1.00;;;;;;5074568;28;20213;-72
2024/01/27 03:09:18;;;;;;;18.80;7.47;;;2.00;1.00;;;;;;5074805;28;20539;-72
2024/01/27 03:11:43;;;;;;;18.93;7.23;;;2.10;1.00;;;;;;5074610;28;20170;-72
2024/01/27 03:14:10;;;;;;;16.37;7.30;;;2.00;4.50;;;;;;5074649;28;20180;-72
2024/01/27 03:16:36;;;;;;;20.10;7.27;;;2.00;1.00;;;;;;5074545;28;20477;-72
2024/01/27 03:19:02;;;;;;;17.47;7.47;;;2.10;1.00;;;;;;5055017;28;20302;-72
2024/01/27 03:21:27;;;;;;;16.80;7.70;;;2.10;1.00;;;;;;5054609;28;20178;-72
2024/01/27 03:23:53;;;;;;;15.73;6.80;;;2.10;1.00;;;;;;5054512;28;20704;-72
2024/01/27 03:26:19;;;;;;;18.70;7.47;;;2.20;1.00;;;;;;5055261;28;20650;-72
2024/01/27 03:28:44;;;;;;;18.47;7.67;;;2.10;1.00;;;;;;5036579;28;20654;-72
2024/01/27 03:31:10;;;;;;;14.20;6.70;;;2.20;1.00;;;;;;5054273;28;20198;-72
2024/01/27 03:33:35;;;;;;;15.27;6.67;;;2.20;1.00;;;;;;5054454;28;20669;-72
2024/01/27 03:36:01;;;;;;;10.97;6.80;;;2.20;1.00;;;;;;5054170;28;20256;-73
2024/01/27 03:38:27;;;;;;;11.00;6.90;;;2.20;1.00;;;;;;5054089;28;20195;-72
2024/01/27 03:40:52;;;;;;;11.87;6.43;;;2.00;1.00;;;;;;5055425;28;20254;-72
2024/01/27 03:43:18;;;;;;;15.33;7.30;;;2.10;1.00;;;;;;5074158;28;20202;-72
2024/01/27 03:45:43;;;;;;;10.80;6.37;;;2.20;1.00;;;;;;5073936;28;20170;-73
2024/01/27 03:48:09;;;;;;;13.93;7.43;;;1.90;1.00;;;;;;5074078;28;20174;-72
2024/01/27 03:50:35;;;;;;;11.80;6.97;;;2.20;1.00;;;;;;5073936;28;20519;-72
2024/01/27 03:53:00;;;;;;;24.00;7.07;;;2.00;1.00;;;;;;5074017;28;20185;-72
2024/01/27 03:55:26;;;;;;;21.50;7.27;;;2.00;1.00;;;;;;5061526;28;20190;-72
2024/01/27 03:57:51;;;;;;;9.63;7.10;;;1.90;1.00;;;;;;5036677;28;20222;-73
2024/01/27 04:00:17;;;;;;;20.63;7.63;;;2.10;1.00;;;;;;5057288;28;20171;-72
2024/01/27 04:02:43;;;;;;;15.50;6.00;;;2.00;1.00;;;;;;5053974;28;20720;-72
2024/01/27 04:05:08;;;;;;;16.97;6.60;;;2.20;1.00;;;;;;5053771;28;20406;-72
2024/01/27 04:07:34;;;;;;;14.90;6.83;;;2.00;1.00;;;;;;5053941;28;20681;-72
2024/01/27 04:10:01;;;;;;;12.40;6.03;;;2.00;1.00;;;;;;5064370;28;20186;-72
2024/01/27 04:12:27;;;;;;;17.37;6.87;;;2.10;1.00;;;;;;5073634;28;20177;-72
2024/01/27 04:14:52;;;;;;;19.27;6.83;;;2.00;1.00;;;;;;5064474;28;20189;-72
2024/01/27 04:17:18;;;;;;;19.33;7.70;;;2.10;1.00;;;;;;5052171;28;20670;-72
2024/01/27 04:19:43;;;;;;;16.03;6.80;;;2.10;1.00;;;;;;5068701;28;20229;-72
2024/01/27 04:22:09;;;;;;;14.50;7.30;;;2.10;1.00;;;;;;5071473;28;20174;-72
2024/01/27 04:24:34;;;;;;;15.93;6.53;;;2.00;1.00;;;;;;5053515;28;20178;-72
2024/01/27 04:27:02;;;;;;;14.57;6.93;;;2.00;1.00;;;;;;5053392;28;20186;-72
2024/01/27 04:29:27;;;;;;;19.30;6.63;;;2.10;1.00;;;;;;5053280;28;20174;-72
2024/01/27 04:31:53;;;;;;;17.53;7.30;;;1.90;1.00;;;;;;5053124;28;20167;-73
2024/01/27 04:34:19;;;;;;;12.13;7.10;;;1.90;1.00;;;;;;5053152;28;20178;-72
2024/01/27 04:36:44;;;;;;;17.83;7.03;;;1.90;1.00;;;;;;5052938;28;20271;-72
2024/01/27 04:39:10;;;;;;;11.77;6.63;;;2.10;1.00;;;;;;5072751;28;20260;-72
2024/01/27 04:41:42;;;;;;;19.97;7.33;;;2.00;1.00;;;;;;5073766;28;20166;-72
2024/01/27 04:44:08;;;;;;;15.37;7.50;;;2.00;1.00;;;;;;5072958;28;20743;-73
2024/01/27 04:46:34;;;;;;;15.20;7.07;;;2.00;1.00;;;;;;5072938;28;20261;-72
2024/01/27 04:48:59;;;;;;;17.73;7.57;;;1.90;1.00;;;;;;5073071;28;20649;-72
2024/01/27 04:51:25;;;;;;;15.13;7.00;;;2.00;1.00;;;;;;5060792;28;20262;-72
2024/01/27 04:53:50;;;;;;;12.97;7.03;;;1.90;1.00;;;;;;5052886;28;20718;-72
2024/01/27 04:56:16;;;;;;;13.67;6.53;;;1.90;1.00;;;;;;5052778;28;20190;-72
2024/01/27 04:58:42;;;;;;;16.17;6.90;;;1.80;1.00;;;;;;5052679;28;20677;-72
2024/01/27 05:01:08;;;;;;;12.10;6.97;;;1.80;1.00;;;;;;5052456;28;20220;-73
2024/01/27 05:03:34;;;;;;;15.30;7.47;;;1.80;1.00;;;;;;5052913;28;20170;-72
2024/01/27 05:06:00;;;;;;;10.33;6.80;;;1.70;1.00;;;;;;5062061;28;20678;-72
2024/01/27 05:08:25;;;;;;;10.57;6.93;;;1.60;1.00;;;;;;5072338;28;20189;-72
2024/01/27 05:10:51;;;;;;;15.60;7.27;;;1.70;1.00;;;;;;5072342;28;20174;-73
2024/01/27 05:13:17;;;;;;;16.43;7.47;;;1.60;1.00;;;;;;5072337;28;20253;-72
2024/01/27 05:15:42;;;;;;;14.80;6.60;;;1.70;1.00;;;;;;5072032;28;20600;-72
2024/01/27 05:18:08;;;;;;;19.17;7.87;;;1.60;1.00;;;;;;5052584;28;20218;-73
2024/01/27 05:20:33;;;;;;;10.60;6.43;;;1.60;1.00;;;;;;5053509;28;20863;-73
2024/01/27 05:22:59;;;;;;;16.47;7.13;;;1.40;99.90;;;;;;5055668;28;20254;-72
2024/01/27 05:25:24;;;;;;;10.17;6.70;;;1.40;1.00;;;;;;5071980;28;20174;-73
2024/01/27 05:27:50;;;;;;;18.00;7.43;;;1.40;1.00;;;;;;5071714;28;20269;-72
2024/01/27 05:30:16;;;;;;;14.00;6.90;;;1.40;1.00;;;;;;5071893;28;20180;-72
2024/01/27 05:32:41;;;;;;;17.73;7.10;;;1.30;1.00;;;;;;5072300;28;20169;-71
2024/01/27 05:35:07;;;;;;;10.60;6.10;;;1.30;1.00;;;;;;5072124;28;20223;-72
2024/01/27 05:37:33;;;;;;;12.40;6.43;;;1.30;1.00;;;;;;5071071;28;20197;-72
2024/01/27 05:39:59;;;;;;;15.80;6.10;;;1.20;1.00;;;;;;5071762;28;20199;-73
2024/01/27 05:42:24;;;;;;;16.77;7.63;;;1.30;1.00;;;;;;5071780;28;20170;-72
2024/01/27 05:44:50;;;;;;;18.53;7.80;;;1.40;1.00;;;;;;5054832;28;20681;-72
2024/01/27 05:47:15;;;;;;;14.17;6.90;;;1.20;1.00;;;;;;5051884;28;20197;-72
2024/01/27 05:49:41;;;;;;;13.67;6.90;;;1.20;1.00;;;;;;5052224;28;20170;-72
2024/01/27 05:52:07;;;;;;;12.20;6.77;;;1.50;28.20;;;;;;5062616;28;20641;-72
2024/01/27 05:54:33;;;;;;;18.37;7.07;;;1.40;20.10;;;;;;5071754;28;20178;-72
2024/01/27 05:56:58;;;;;;;20.83;6.60;;;1.40;1.00;;;;;;5070328;28;20198;-72
2024/01/27 05:59:24;;;;;;;13.00;6.50;;;1.40;1.00;;;;;;5071529;28;20224;-72
2024/01/27 06:01:49;;;;;;;13.43;6.70;;;1.40;1.00;;;;;;5053735;28;20178;-72
2024/01/27 06:04:15;;;;;;;15.13;7.43;;;1.40;1.00;;;;;;5051848;28;20171;-73
2024/01/27 06:06:41;;;;;;;19.03;7.07;;;1.30;1.00;;;;;;5051574;28;20531;-73
2024/01/27 06:09:10;;;;;;;25.23;7.90;;;1.20;1.00;;;;;;5051526;28;20269;-72
2024/01/27 06:11:36;;;;;;;17.73;7.53;;;1.20;1.00;;;;;;5057442;28;20201;-72
2024/01/27 06:14:02;;;;;;;14.43;6.80;;;1.20;1.00;;;;;;5068933;28;20363;-72
2024/01/27 06:16:28;;;;;;;12.03;6.80;;;1.20;1.00;;;;;;5051168;28;20651;-73
2024/01/27 06:18:54;;;;;;;12.60;7.30;;;1.20;1.00;;;;;;5052147;28;20225;-73
2024/01/27 06:21:20;;;;;;;11.23;6.50;;;1.10;1.00;;;;;;5071231;28;20268;-72
2024/01/27 06:23:46;;;;;;;11.63;7.17;;;1.10;1.00;;;;;;5053377;28;20174;-72
2024/01/27 06:26:14;;;;;;;9.83;6.47;;;1.10;1.00;;;;;;5071328;28;20197;-72
2024/01/27 06:28:40;;;;;;;16.10;7.07;;;1.10;1.00;;;;;;5071358;28;20178;-72
2024/01/27 06:31:07;;;;;;;18.17;6.77;;;1.00;1.00;;;;;;5066949;28;20262;-72
2024/01/27 06:33:34;;;;;;;18.70;7.00;;;1.00;1.00;;;;;;5051255;28;20166;-73
2024/01/27 06:36:00;;;;;;;24.10;7.57;;;0.80;1.00;;;;;;5051070;28;20195;-73
2024/01/27 06:38:27;;;;;;;15.67;7.23;;;0.80;1.00;;;;;;5051166;28;20622;-72
2024/01/27 06:40:52;;;;;;;9.40;6.50;;;0.80;1.00;;;;;;5054429;28;20634;-73
2024/01/27 06:43:18;;;;;;;13.00;7.67;;;0.70;1.00;;;;;;5057078;28;20221;-73
2024/01/27 06:45:44;;;;;;;9.40;7.13;;;0.70;1.00;;;;;;5056235;28;20223;-73
2024/01/27 06:48:10;;;;;;;19.30;7.23;;;0.60;1.00;;;;;;5055415;28;20179;-73
2024/01/27 06:50:35;;;;;;;15.03;7.17;;;0.70;1.00;;;;;;5057128;28;20174;-73
2024/01/27 06:53:01;;;;;;;10.37;6.77;;;0.60;1.00;;;;;;5075181;28;20633;-73
2024/01/27 06:55:27;;;;;;;14.90;6.73;;;0.50;1.00;;;;;;5075253;28;20166;-73
2024/01/27 06:57:53;;;;;;;9.73;7.17;;;0.50;1.00;;;;;;5074631;28;20698;-73
2024/01/27 07:00:19;;;;;;;15.70;7.23;;;0.50;1.00;;;;;;5067534;28;20232;-73
2024/01/27 07:02:45;;;;;;;7.67;6.70;;;0.50;1.00;;;;;;5055092;28;20228;-73
2024/01/27 07:05:14;;;;;;;15.00;7.37;;;0.40;1.00;;;;;;5070286;28;20174;-73
2024/01/27 07:07:40;;;;;;;15.77;8.23;;;0.40;1.00;;;;;;5064201;28;20540;-71
2024/01/27 07:10:07;;;;;;;13.90;6.97;;;0.40;1.00;;;;;;5054874;28;20175;-71
2024/01/27 07:12:33;;;;;;;13.27;7.03;;;0.40;1.00;;;;;;5054791;28;20205;-71
2024/01/27 07:14:59;;;;;;;16.70;7.23;;;0.40;1.00;;;;;;5055890;28;20183;-72
2024/01/27 07:17:26;;;;;;;20.10;8.13;;;0.30;1.00;;;;;;5063096;28;20200;-72
2024/01/27 07:19:52;;;;;;;16.27;6.97;;;0.30;1.00;;;;;;5074427;28;20255;-71
2024/01/27 07:22:18;;;;;;;11.77;7.30;;;0.30;1.00;;;;;;5074564;28;20174;-72
2024/01/27 07:24:43;;;;;;;16.63;7.87;;;0.20;1.00;;;;;;5073437;28;20255;-71
2024/01/27 07:27:12;;;;;;;16.07;8.60;;;0.20;6.30;;;;;;5075108;28;20665;-71
2024/01/27 07:29:38;;;;;;;10.53;7.00;;;0.30;28.20;;;;;;5074384;28;20213;-71
2024/01/27 07:32:05;;;;;;;15.20;7.80;;;0.30;28.30;;;;;;5066358;28;20210;-71
2024/01/27 07:34:30;;;;;;;13.03;7.73;;;0.30;36.50;;;;;;5053987;28;20177;-70
2024/01/27 07:36:56;;;;;;;8.30;7.40;;;0.20;9.30;;;;;;5054169;28;20285;-71
2024/01/27 07:39:22;;;;;;;12.47;7.73;;;0.30;20.40;;;;;;5054210;28;20564;-72
2024/01/27 07:41:48;;;;;;;10.37;7.17;;;0.20;13.30;;;;;;5056467;28;20187;-70
2024/01/27 07:44:14;;;;;;;14.60;9.20;;;0.20;18.80;;;;;;5074211;28;20196;-71
2024/01/27 07:46:41;;;;;;;16.03;8.33;;;0.30;27.90;;;;;;5074604;28;20194;-71
2024/01/27 07:49:08;;;;;;;15.43;8.27;;;0.30;49.10;;;;;;5074615;28;20167;-72
2024/01/27 07:51:34;;;;;;;9.23;8.10;;;0.40;97.40;;;;;;5074011;28;20174;-72
2024/01/27 07:54:00;;;;;;;14.70;8.30;;;0.40;99.00;;;;;;5074086;28;20239;-71
2024/01/27 07:56:26;;;;;;;20.40;9.70;;;0.40;99.90;;;;;;5072159;28;20618;-71
2024/01/27 07:58:52;;;;;;;16.07;8.23;;;0.50;99.90;;;;;;5055071;28;20206;-72
2024/01/27 08:01:19;;;;;;;11.90;8.27;;;0.50;99.90;;;;;;5055115;28;20171;-72
2024/01/27 08:03:44;;;;;;;12.57;8.40;;;0.50;99.90;;;;;;5061550;28;20170;-72
2024/01/27 08:06:18;;;;;;;13.67;8.80;;;0.50;99.90;;;;;;5068396;28;20555;-72
2024/01/27 08:08:46;;;;;;;33.93;10.13;;;0.60;99.90;;;;;;5053879;28;20665;-72
2024/01/27 08:11:12;;;;;;;16.23;9.00;;;0.70;99.90;;;;;;5066744;28;20186;-72
2024/01/27 08:13:37;;;;;;;13.73;8.63;;;0.70;99.90;;;;;;5073884;28;20182;-72
2024/01/27 08:16:05;;;;;;;15.70;8.60;;;0.80;99.90;;;;;;5055895;28;20574;-73
2024/01/27 08:18:31;;;;;;;17.93;8.10;;;0.90;99.90;;;;;;5074137;28;20251;-72
2024/01/27 08:20:56;;;;;;;18.97;8.23;;;1.00;99.90;;;;;;5073961;28;20166;-72
2024/01/27 08:23:23;;;;;;;16.93;8.60;;;1.20;99.90;;;;;;5075054;28;20170;-72
2024/01/27 08:25:52;;;;;;;15.97;8.57;;;1.60;99.90;;;;;;5075077;28;20170;-73
2024/01/27 08:28:18;;;;;;;12.90;7.97;;;2.00;99.90;;;;;;5076538;28;20196;-72
2024/01/27 08:30:43;;;;;;;14.47;8.07;;;2.30;99.90;;;;;;5077011;28;20174;-72
2024/01/27 08:33:09;;;;;;;12.53;6.73;;;2.90;99.90;;;;;;5076485;28;20181;-72
2024/01/27 08:35:35;;;;;;;17.27;8.97;;;3.40;99.90;;;;;;5075626;28;20174;-71
2024/01/27 08:38:00;;;;;;;10.37;6.07;;;3.90;99.90;;;;;;5068936;28;20546;-71
2024/01/27 08:40:26;;;;;;;16.90;6.73;;;4.60;99.90;;;;;;5053075;28;20167;-72
2024/01/27 08:42:51;;;;;;;9.43;5.60;;;5.20;99.90;;;;;;5035534;28;20599;-72
2024/01/27 08:45:17;;;;;;;10.37;5.73;;;5.60;99.90;;;;;;5053250;28;20258;-72
2024/01/27 08:47:42;;;;;;;12.53;5.93;;;5.90;99.90;;;;;;5065851;28;20202;-71
2024/01/27 08:50:10;;;;;;;13.13;5.70;;;6.20;99.90;;;;;;5072910;28;20220;-71
2024/01/27 08:52:36;;;;;;;12.97;5.77;;;6.50;99.90;;;;;;5075023;28;20162;-73
2024/01/27 08:55:02;;;;;;;12.40;6.27;;;6.90;99.90;;;;;;5070507;28;20196;-72
2024/01/27 08:57:27;;;;;;;9.20;5.67;;;7.20;99.90;;;;;;5078458;28;20194;-72
2024/01/27 08:59:53;;;;;;;8.20;5.67;;;7.60;99.90;;;;;;5077524;28;20228;-71
2024/01/27 09:02:19;;;;;;;10.53;5.83;;;8.00;99.90;;;;;;5072115;28;20194;-71
2024/01/27 09:04:44;;;;;;;7.10;5.57;;;8.40;99.90;;;;;;5070634;28;20618;-71
2024/01/27 09:07:11;;;;;;;9.57;5.40;;;8.80;60.80;;;;;;5072740;28;20666;-70
2024/01/27 09:09:38;;;;;;;10.13;5.37;;;8.90;1.00;;;;;;5072374;28;20171;-71
2024/01/27 09:12:04;;;;;;;11.97;5.43;;;8.90;88.60;;;;;;5072027;28;20173;-71
2024/01/27 09:14:29;;;;;;;11.97;4.93;;;8.90;20.90;;;;;;5072160;28;20253;-72
2024/01/27 09:16:55;;;;;;;13.53;4.90;;;9.10;2.50;;;;;;5072234;28;20198;-70
2024/01/27 09:19:21;;;;;;;8.97;4.40;;;9.30;1.00;;;;;;5058102;28;20481;-72
2024/01/27 09:21:47;;;;;;;9.50;4.33;;;9.60;1.00;;;;;;5052693;28;20190;-72
2024/01/27 09:24:13;;;;;;;10.33;4.37;;;10.10;1.00;;;;;;5054146;28;20175;-72
2024/01/27 09:26:38;;;;;;;10.27;4.60;;;10.40;1.00;;;;;;5056554;28;20186;-72
2024/01/27 09:29:04;;;;;;;6.10;4.17;;;10.80;1.00;;;;;;5062330;28;20657;-71
2024/01/27 09:31:30;;;;;;;7.50;4.27;;;11.20;1.00;;;;;;5070333;28;20205;-70
2024/01/27 09:33:55;;;;;;;10.10;3.97;;;11.60;1.00;;;;;;5052473;28;20171;-71
2024/01/27 09:36:22;;;;;;;11.00;4.30;;;11.80;1.00;;;;;;5052096;28;20286;-71
2024/01/27 09:38:47;;;;;;;7.63;4.40;;;11.90;1.00;;;;;;5052307;28;20195;-72
2024/01/27 09:41:14;;;;;;;10.40;4.23;;;11.90;1.00;;;;;;5034329;28;20233;-71
2024/01/27 09:43:44;;;;;;;9.97;4.27;;;12.00;1.00;;;;;;5052809;28;20258;-71
2024/01/27 09:46:11;;;;;;;8.93;4.20;;;11.90;1.00;;;;;;5052018;28;20674;-71
2024/01/27 09:48:37;;;;;;;9.07;3.63;;;11.80;1.00;;;;;;5051936;28;20254;-71
2024/01/27 09:51:05;;;;;;;7.63;3.73;;;11.80;1.00;;;;;;5067514;28;20265;-71
2024/01/27 09:53:30;;;;;;;8.67;4.10;;;12.10;1.00;;;;;;5071738;28;20167;-71
2024/01/27 09:55:58;;;;;;;10.90;4.60;;;12.00;1.00;;;;;;5053232;28;20742;-71
2024/01/27 09:58:27;;;;;;;13.90;6.20;;;12.10;1.00;;;;;;5052153;28;20207;-71
2024/01/27 10:00:59;;;;;;;10.30;4.50;;;12.20;1.00;;;;;;5052150;28;20240;-71
2024/01/27 10:03:26;;;;;;;8.60;4.77;;;12.30;1.00;;;;;;5051578;28;20182;-71
2024/01/27 10:05:54;;;;;;;8.37;4.47;;;12.40;1.00;;;;;;5051520;28;20186;-71
2024/01/27 10:08:21;;;;;;;7.60;4.00;;;12.80;1.00;;;;;;5071593;28;20189;-71
2024/01/27 10:10:47;;;;;;;9.63;3.90;;;13.10;1.00;;;;;;5071360;28;20304;-71
2024/01/27 10:13:16;;;;;;;11.07;5.20;;;13.50;1.00;;;;;;5071169;28;20178;-70
2024/01/27 10:15:42;;;;;;;11.90;4.10;;;13.90;1.00;;;;;;5071027;28;20182;-71
2024/01/27 10:18:12;;;;;;;12.73;3.87;;;14.20;1.00;;;;;;5071197;28;20194;-71
2024/01/27 10:20:39;;;;;;;10.90;4.30;;;14.50;1.00;;;;;;5070574;28;20170;-71
2024/01/27 10:23:12;;;;;;;9.50;4.57;;;14.60;1.00;;;;;;5051276;28;20167;-71
2024/01/27 10:25:39;;;;;;;9.63;5.13;;;14.80;1.00;;;;;;5051134;28;20556;-71
2024/01/27 10:28:07;;;;;;;6.53;4.47;;;14.90;1.00;;;;;;5056204;28;20161;-71
2024/01/27 10:30:33;;;;;;;8.63;4.97;;;15.00;1.00;;;;;;5071120;28;20166;-71
2024/01/27 10:32:59;;;;;;;8.13;4.90;;;15.00;1.00;;;;;;5071373;28;20185;-71
2024/01/27 10:35:24;;;;;;;9.93;4.07;;;15.00;1.00;;;;;;5071271;28;20178;-71
2024/01/27 10:37:54;;;;;;;13.80;6.77;;;15.00;1.00;;;;;;5071170;28;20190;-71
2024/01/27 10:40:20;;;;;;;8.60;5.23;;;14.70;1.00;;;;;;5071190;28;20177;-71
2024/01/27 10:42:46;;;;;;;9.53;4.40;;;14.90;1.00;;;;;;5065892;28;20642;-72
2024/01/27 10:45:12;;;;;;;9.57;4.20;;;15.10;1.00;;;;;;5052154;28;20166;-71
2024/01/27 10:47:39;;;;;;;6.50;3.70;;;15.10;1.00;;;;;;5055854;28;20218;-71
2024/01/27 10:50:09;;;;;;;7.53;3.80;;;14.90;1.00;;;;;;5053900;28;20220;-71
2024/01/27 10:52:38;;;;;;;8.37;4.40;;;14.50;1.00;;;;;;5051345;28;20244;-71
2024/01/27 10:55:08;;;;;;;8.63;3.77;;;14.00;1.00;;;;;;5051331;28;20183;-71
2024/01/27 10:57:34;;;;;;;9.97;4.70;;;13.60;1.00;;;;;;5067834;28;20206;-71
2024/01/27 11:00:08;;;;;;;12.37;4.50;;;13.30;1.00;;;;;;5075960;28;20536;-71
2024/01/27 11:02:35;;;;;;;11.53;5.40;;;12.50;1.00;;;;;;5058453;28;20170;-71
2024/01/27 11:05:03;;;;;;;9.57;4.73;;;11.70;1.00;;;;;;5074587;28;20165;-72
2024/01/27 11:07:32;;;;;;;11.43;4.70;;;11.10;1.00;;;;;;5075029;28;20245;-72
2024/01/27 11:09:57;;;;;;;10.33;4.57;;;10.50;1.00;;;;;;5071778;28;20181;-71
2024/01/27 11:12:24;;;;;;;15.00;5.27;;;10.00;1.00;;;;;;5053354;28;20258;-71
2024/01/27 11:14:51;;;;;;;13.87;5.00;;;9.70;1.00;;;;;;5051185;28;20171;-71
2024/01/27 11:17:17;;;;;;;10.63;5.43;;;9.70;1.00;;;;;;5051326;28;20201;-71
2024/01/27 11:19:45;;;;;;;13.03;5.10;;;10.10;1.00;;;;;;5050789;28;20202;-71
2024/01/27 11:22:27;;;;;;;13.53;4.47;;;10.60;1.00;;;;;;5050915;28;20175;-71
2024/01/27 11:25:11;;;;;;;14.60;5.03;;;11.20;1.00;;;;;;5052026;28;20171;-71
2024/01/27 11:27:38;;;;;;;11.40;4.93;;;11.90;1.00;;;;;;5054064;28;20533;-71
2024/01/27 11:30:04;;;;;;;12.37;4.33;;;12.20;1.00;;;;;;5054766;28;20174;-71
2024/01/27 11:32:30;;;;;;;12.23;5.23;;;12.60;1.00;;;;;;5054788;28;20204;-71
2024/01/27 11:34:57;;;;;;;9.77;3.97;;;13.00;1.00;;;;;;5055417;28;20179;-71
2024/01/27 11:37:25;;;;;;;6.30;3.50;;;13.30;1.00;;;;;;5060649;28;20190;-72
2024/01/27 11:39:54;;;;;;;12.57;5.17;;;13.50;1.00;;;;;;5060268;28;20746;-71
2024/01/27 11:42:20;;;;;;;9.93;4.30;;;13.90;1.00;;;;;;5054802;28;20254;-71
2024/01/27 11:44:45;;;;;;;11.87;4.33;;;14.20;1.00;;;;;;5055364;28;20331;-71
2024/01/27 11:47:16;;;;;;;8.80;3.90;;;14.40;1.00;;;;;;5073754;28;20212;-71
2024/01/27 11:49:44;;;;;;;10.90;4.23;;;14.50;1.00;;;;;;5073992;28;20178;-71
2024/01/27 11:52:09;;;;;;;9.47;4.37;;;14.40;1.00;;;;;;5069394;28;20197;-71
2024/01/27 11:54:36;;;;;;;6.53;3.80;;;14.40;1.00;;;;;;5053830;28;20186;-71
2024/01/27 11:57:02;;;;;;;9.53;4.00;;;14.20;1.00;;;;;;5053582;28;20197;-71
2024/01/27 11:59:27;;;;;;;10.50;3.93;;;13.90;1.00;;;;;;5053685;28;20206;-71
2024/01/27 12:01:53;;;;;;;10.87;3.90;;;14.00;1.00;;;;;;5055044;28;20186;-71
2024/01/27 12:04:21;;;;;;;9.50;3.87;;;14.00;1.00;;;;;;5053990;28;20216;-72
2024/01/27 12:06:47;;;;;;;10.03;3.80;;;13.70;1.00;;;;;;5054025;28;20226;-70
2024/01/27 12:09:13;;;;;;;9.27;4.00;;;13.50;1.00;;;;;;5055963;28;20186;-70
2024/01/27 12:11:41;;;;;;;10.53;4.70;;;13.20;1.00;;;;;;5055644;28;20181;-70
2024/01/27 12:14:07;;;;;;;8.63;3.80;;;13.40;1.00;;;;;;5053473;28;20182;-70
2024/01/27 12:16:33;;;;;;;9.63;4.07;;;13.60;1.00;;;;;;5066630;28;20210;-71
2024/01/27 12:18:59;;;;;;;8.33;4.00;;;13.60;1.00;;;;;;5073816;28;20202;-70
2024/01/27 12:21:25;;;;;;;6.93;3.57;;;13.40;1.00;;;;;;5071232;28;20217;-70
2024/01/27 12:23:58;;;;;;;11.17;4.60;;;13.40;1.00;;;;;;5073317;28;20201;-70
2024/01/27 12:26:29;;;;;;;8.90;4.13;;;13.30;1.00;;;;;;5073260;28;20230;-70
2024/01/27 12:28:56;;;;;;;7.90;4.37;;;13.20;1.00;;;;;;5073578;28;20180;-69
2024/01/27 12:31:23;;;;;;;9.43;3.83;;;13.10;1.00;;;;;;5055184;28;20547;-71
2024/01/27 12:33:56;;;;;;;14.13;4.33;;;13.10;1.00;;;;;;5056935;28;20235;-70
2024/01/27 12:36:22;;;;;;;6.60;3.50;;;13.00;1.00;;;;;;5053142;28;20253;-70
2024/01/27 12:38:59;;;;;;;8.57;3.70;;;12.90;1.00;;;;;;5052229;28;20198;-70
2024/01/27 12:41:26;;;;;;;10.60;4.10;;;12.80;1.00;;;;;;5052848;28;20170;-70
2024/01/27 12:43:52;;;;;;;7.20;4.07;;;12.60;1.00;;;;;;5052919;28;20619;-71
2024/01/27 12:46:17;;;;;;;9.17;4.03;;;12.60;1.00;;;;;;5053033;28;20276;-70
2024/01/27 12:48:47;;;;;;;8.50;4.07;;;12.80;1.00;;;;;;5069850;28;20186;-70
2024/01/27 12:51:13;;;;;;;9.63;4.00;;;13.10;1.00;;;;;;5072898;28;20182;-70